Details From LIMJ - Genova Sestri
To LSZS - Samedan
Flight Number -
Tags Routegen Generated
Created
Modified
Stats Distance 143 nm / 264 km
Max Altitude 15,000 ft / 4,572 m
Waypoints 10
Social Downloads 12
Likes 0
Share

Download

Looking for another format? Having issues loading an existing format? Contact us
Advertisement - Login to hide

Notes

Departing runway 10 LIMJ. Arriving runway 2 LSZS. Advanced Generation Settings: Turn accuracy: 20 Altitude: 15000ft Smoothed angles: True Runway changes allowed: True Calculation order: Arrival --> Departure --> Intermediates Multipass intermediates: True

Route

LIMJ +44.39_+008.96 +44.39_+009.04 +44.42_+009.11 +44.46_+009.17 +44.51_+009.20 +44.57_+009.21 +45.30_+009.44 +46.46_+009.83 LSZS

ID Type Via Altitude (ft/m) Position (lat/lon) Dist (leg/tot) Name
O LIMJ APT - 0 / 0 44.40848 / 8.85958 - / 0 nm
+44.39_+008.96 LATLON - 310 / 94 44.38926 / 8.95723 4 / 4 nm
+44.39_+009.04 LATLON - 15,000 / 4,572 44.39390 / 9.03798 3 / 7 nm
+44.42_+009.11 LATLON - 15,000 / 4,572 44.41800 / 9.11166 3 / 11 nm
+44.46_+009.17 LATLON - 15,000 / 4,572 44.45866 / 9.16939 3 / 14 nm
+44.51_+009.20 LATLON - 15,000 / 4,572 44.51096 / 9.20417 3 / 18 nm
+44.57_+009.21 LATLON - 15,000 / 4,572 44.56860 / 9.21177 3 / 21 nm
+45.30_+009.44 LATLON - 15,000 / 4,572 45.30127 / 9.44492 45 / 66 nm
+46.46_+009.83 LATLON - 310 / 94 46.46353 / 9.82735 71 / 138 nm
O LSZS APT - 0 / 0 46.52683 / 9.87829 4 / 142 nm Samedan

Altitude Profile

Advertisement - Login to hide

LIMJ

Details ICAO LIMJ (GOA)
Name Genova-Sestri "Cristoforo Colombo"
Region Italy
Timezone Unknown
Stats Elevation 13 ft / 4 m (AMSL)
Location 44.412000° 8.841870°
Runways 1
Magnetic Variation 2.836° E

METAR

LIMJ 011820Z 17011KT 150V240 9999 SCT037 15/09 Q1004

Decode

TAF

TAF LIMJ 011700Z 0118/0218 15010KT 9999 SCT020 BECMG 0118/0120 02014KT

Decode

Departure Runways

ID Width Length Bearing (true/mag) Surface Threshold Overrun Markings Lighting
10 148 ft / 45 m 9,576 ft / 2,919 m 105.34° / 102.51° ASPHALT 0 ft / 0 m 197 ft / 60 m PREC-APP CENTERLINE EDGE THRESHOLD REIL-OMNI
28 148 ft / 45 m 9,576 ft / 2,919 m 285.37° / 282.53° ASPHALT 535 ft / 163 m 0 ft / 0 m PREC-APP CENTERLINE EDGE THRESHOLD SALS REIL-OMNI

LSZS

Details ICAO LSZS (SMV)
Name Samedan
Region Switzerland
Timezone Europe/Zurich (UTC+1.0)
Stats Elevation 5,600 ft / 1,707 m (AMSL)
Location 46.534200° 9.883970°
Runways 1
Magnetic Variation 3.127° E

METAR

LSZS 011820Z AUTO 24011KT 9999 FEW027 SCT030 OVC045 M01/M04 Q1002

Decode

TAF

Not found

Destination Runways

ID Width Length Bearing (true/mag) Surface Threshold Overrun Markings Lighting
03 131 ft / 40 m 6,045 ft / 1,842 m 29.15° / 26.02° ASPHALT 0 ft / 0 m 0 ft / 0 m APP EDGE THRESHOLD MALSR
21 131 ft / 40 m 6,045 ft / 1,842 m 209.15° / 206.03° ASPHALT 361 ft / 110 m 0 ft / 0 m APP EDGE THRESHOLD MALSR

Popular Alternatives